Time;durP1;ratioP1;P1;durP2;ratioP2;P2;SDS_P1;SDS_P2;PMS_P1;PMS_P2;Temp;Humidity;BMP_temperature;BMP_pressure;BME280_temperature;BME280_humidity;BME280_pressure;Samples;Min_cycle;Max_cycle;Signal;HPM_P1;HPM_P2
2023/08/01 00:00:03;;;;;;;2.07;1.90;;;;;;;24.66;60.61;96607.75;5064546;28;20250;-27
2023/08/01 00:02:29;;;;;;;2.17;1.97;;;;;;;24.65;60.41;96596.59;5058367;28;20201;-27
2023/08/01 00:04:56;;;;;;;2.27;1.93;;;;;;;24.65;60.55;96594.03;5054870;28;20232;-27
2023/08/01 00:07:22;;;;;;;2.27;2.07;;;;;;;24.65;60.54;96598.31;5061631;28;20823;-27
2023/08/01 00:09:49;;;;;;;3.03;1.93;;;;;;;24.63;60.47;96590.56;5055364;28;20759;-27
2023/08/01 00:12:15;;;;;;;2.03;1.90;;;;;;;24.65;60.66;96585.44;5053322;28;20290;-27
2023/08/01 00:14:42;;;;;;;4.37;2.27;;;;;;;24.61;60.17;96579.44;5054145;28;20601;-27
2023/08/01 00:17:08;;;;;;;2.20;2.00;;;;;;;24.59;60.53;96563.16;5061080;28;20658;-27
2023/08/01 00:19:35;;;;;;;3.10;2.00;;;;;;;24.64;60.29;96571.75;5058062;28;20250;-35
2023/08/01 00:22:02;;;;;;;2.33;2.07;;;;;;;24.64;60.29;96555.44;5060620;28;20192;-27
2023/08/01 00:24:28;;;;;;;2.03;1.83;;;;;;;24.64;60.21;96558.91;5058240;28;20217;-27
2023/08/01 00:26:55;;;;;;;2.13;1.93;;;;;;;24.50;60.66;96531.44;5058553;28;20193;-27
2023/08/01 00:29:22;;;;;;;1.73;1.63;;;;;;;24.63;60.81;96546.88;5061369;28;20204;-29
2023/08/01 00:31:49;;;;;;;2.10;1.90;;;;;;;24.64;60.48;96548.63;5039566;28;20235;-27
2023/08/01 00:34:16;;;;;;;2.43;2.10;;;;;;;24.65;60.30;96534.94;5056853;28;20731;-27
2023/08/01 00:36:42;;;;;;;2.07;1.87;;;;;;;24.63;60.27;96531.47;5064413;28;20197;-27
2023/08/01 00:39:09;;;;;;;1.73;1.63;;;;;;;24.65;60.52;96531.50;5060923;28;20205;-27
2023/08/01 00:41:36;;;;;;;2.17;1.97;;;;;;;24.64;60.50;96525.50;5062178;28;20371;-27
2023/08/01 00:44:02;;;;;;;1.87;1.77;;;;;;;24.64;60.47;96517.78;5057118;28;20255;-27
2023/08/01 00:46:29;;;;;;;2.23;2.00;;;;;;;24.65;60.71;96513.50;5052170;28;20317;-27
2023/08/01 00:48:58;;;;;;;2.40;2.20;;;;;;;24.63;60.81;96505.78;5039701;28;20196;-27
2023/08/01 00:51:24;;;;;;;2.07;1.87;;;;;;;24.65;60.78;96500.66;5018828;28;20217;-27
2023/08/01 00:53:51;;;;;;;2.17;1.97;;;;;;;24.66;60.31;96502.41;5051960;28;20274;-33
2023/08/01 00:56:17;;;;;;;2.30;2.00;;;;;;;24.65;60.83;96495.53;5058782;28;20259;-27
2023/08/01 00:58:44;;;;;;;2.03;1.80;;;;;;;24.65;60.27;96486.13;5049865;28;20247;-27
2023/08/01 01:01:10;;;;;;;2.10;1.90;;;;;;;24.65;60.50;96490.38;5054254;28;20231;-27
2023/08/01 01:03:37;;;;;;;2.30;2.10;;;;;;;24.64;60.27;96488.66;5059239;28;20353;-27
2023/08/01 01:06:12;;;;;;;1.70;1.60;;;;;;;24.61;60.63;96479.25;5051220;28;20201;-27
2023/08/01 01:08:38;;;;;;;2.73;2.10;;;;;;;24.65;60.68;96493.84;5043238;28;20266;-27
2023/08/01 01:11:05;;;;;;;2.87;2.10;;;;;;;24.62;60.27;96487.78;5056456;28;20200;-27
2023/08/01 01:13:32;;;;;;;2.00;1.90;;;;;;;24.64;60.30;96486.97;5054687;28;20252;-27
2023/08/01 01:15:58;;;;;;;2.33;2.10;;;;;;;24.63;60.22;96490.34;5051963;28;20197;-28
2023/08/01 01:18:25;;;;;;;1.90;1.80;;;;;;;24.61;60.73;96492.09;5051566;28;20200;-27
2023/08/01 01:20:52;;;;;;;2.00;1.70;;;;;;;24.62;60.48;96487.78;5051725;28;20200;-27
2023/08/01 01:23:18;;;;;;;2.00;1.80;;;;;;;24.62;60.84;96503.19;5051360;28;20723;-27
2023/08/01 01:25:45;;;;;;;1.83;1.73;;;;;;;24.63;60.71;96504.94;5048636;28;20266;-27
2023/08/01 01:28:12;;;;;;;2.33;2.13;;;;;;;24.61;60.64;96498.94;5051353;28;20201;-27
2023/08/01 01:30:38;;;;;;;2.20;2.00;;;;;;;24.63;60.92;96508.34;5006390;28;20200;-32
2023/08/01 01:33:05;;;;;;;2.40;1.97;;;;;;;24.61;60.81;96492.09;5021104;28;20220;-27
2023/08/01 01:35:35;;;;;;;3.13;2.00;;;;;;;24.58;61.01;96479.25;5045609;28;20200;-27
2023/08/01 01:38:05;;;;;;;2.27;2.07;;;;;;;24.60;60.87;96459.53;5051300;28;20250;-27
2023/08/01 01:40:32;;;;;;;2.13;1.87;;;;;;;24.61;60.76;96468.09;5057590;28;20223;-27
2023/08/01 01:42:59;;;;;;;2.40;2.07;;;;;;;24.62;60.52;96464.66;5049148;28;20673;-27
2023/08/01 01:45:26;;;;;;;2.27;1.93;;;;;;;24.63;60.91;96463.84;5050947;28;20675;-27
2023/08/01 01:47:53;;;;;;;2.00;1.80;;;;;;;24.61;60.73;96461.25;5056829;28;20700;-27
2023/08/01 01:50:19;;;;;;;2.50;2.30;;;;;;;24.62;61.01;96456.97;5050923;28;20215;-27
2023/08/01 01:52:46;;;;;;;2.40;2.10;;;;;;;24.62;60.32;96441.53;5048801;28;20660;-27
2023/08/01 01:55:12;;;;;;;2.80;2.07;;;;;;;24.61;60.79;96443.28;5051391;28;20664;-27
2023/08/01 01:57:40;;;;;;;2.27;2.07;;;;;;;24.63;60.62;96438.16;5059530;28;20204;-27
2023/08/01 02:00:10;;;;;;;2.10;2.00;;;;;;;24.60;60.71;96420.16;5050025;28;20664;-27
2023/08/01 02:02:36;;;;;;;1.90;1.80;;;;;;;24.63;60.74;96422.72;5056415;28;20200;-27
2023/08/01 02:05:06;;;;;;;2.67;1.97;;;;;;;24.62;60.82;96421.00;5051274;28;20691;-27
2023/08/01 02:07:33;;;;;;;2.13;1.93;;;;;;;24.63;60.91;96415.84;5052458;28;20259;-27
2023/08/01 02:10:01;;;;;;;2.27;1.80;;;;;;;24.63;60.50;96417.59;5057621;28;20201;-27
2023/08/01 02:12:31;;;;;;;2.27;2.07;;;;;;;24.61;60.69;96414.16;5056056;28;20768;-27
2023/08/01 02:14:58;;;;;;;2.13;1.90;;;;;;;24.61;60.61;96415.03;5058568;28;20212;-27
2023/08/01 02:17:25;;;;;;;2.37;2.07;;;;;;;24.61;61.05;96407.31;5055354;28;20205;-27
2023/08/01 02:19:51;;;;;;;2.33;2.03;;;;;;;24.61;60.93;96407.31;5066013;28;20234;-28
2023/08/01 02:22:18;;;;;;;2.30;2.10;;;;;;;24.62;60.77;96400.44;5055738;28;20255;-27
2023/08/01 02:24:45;;;;;;;2.37;1.90;;;;;;;24.57;60.88;96384.19;5062635;28;20613;-27
2023/08/01 02:27:11;;;;;;;2.30;2.10;;;;;;;24.62;60.71;96397.88;5058351;28;20201;-27
2023/08/01 02:29:38;;;;;;;2.47;2.20;;;;;;;24.61;61.04;96391.91;5057092;28;20266;-27
2023/08/01 02:32:04;;;;;;;2.50;2.10;;;;;;;24.61;60.76;96388.47;5061079;28;20654;-27
2023/08/01 02:34:31;;;;;;;2.70;2.20;;;;;;;24.61;60.81;96385.91;5064821;28;20223;-27
2023/08/01 02:36:58;;;;;;;2.40;2.03;;;;;;;24.61;61.07;96370.47;5048744;28;20207;-27
2023/08/01 02:39:25;;;;;;;2.30;2.10;;;;;;;24.61;60.64;96362.78;5066707;28;20204;-31
2023/08/01 02:41:51;;;;;;;2.50;2.10;;;;;;;24.59;60.45;96367.91;5055018;28;20196;-27
2023/08/01 02:44:18;;;;;;;2.00;1.80;;;;;;;24.61;60.82;96370.47;5066359;28;20839;-27
2023/08/01 02:46:44;;;;;;;2.17;1.97;;;;;;;24.61;60.82;96362.78;5057739;28;20205;-27
2023/08/01 02:49:11;;;;;;;2.30;2.10;;;;;;;24.60;60.83;96363.66;5062608;28;20204;-27
2023/08/01 02:51:37;;;;;;;1.97;1.80;;;;;;;24.61;60.85;96367.91;5056489;28;20208;-27
2023/08/01 02:54:04;;;;;;;2.23;2.03;;;;;;;24.59;60.94;96365.34;5058600;28;20290;-27
2023/08/01 02:56:30;;;;;;;3.43;1.90;;;;;;;24.61;61.13;96366.22;5054638;28;20260;-27
2023/08/01 02:58:57;;;;;;;2.10;1.83;;;;;;;24.57;61.08;96355.94;5062057;28;20733;-27
2023/08/01 03:01:24;;;;;;;2.03;1.90;;;;;;;24.56;61.21;96359.34;5053715;28;20262;-27
2023/08/01 03:03:51;;;;;;;1.83;1.73;;;;;;;24.60;60.98;96379.06;5056625;28;20673;-27
2023/08/01 03:06:18;;;;;;;1.80;1.70;;;;;;;24.61;60.72;96389.34;5060469;28;20205;-27
2023/08/01 03:08:44;;;;;;;2.30;2.10;;;;;;;24.56;60.67;96379.91;5059845;28;20593;-27
2023/08/01 03:11:11;;;;;;;1.87;1.77;;;;;;;24.55;61.15;96375.63;5058364;28;20607;-27
2023/08/01 03:13:38;;;;;;;2.13;1.93;;;;;;;24.60;61.15;96385.03;5056266;28;20220;-27
2023/08/01 03:16:04;;;;;;;2.23;2.00;;;;;;;24.59;60.95;96388.47;5056074;28;20626;-27
2023/08/01 03:18:31;;;;;;;1.90;1.80;;;;;;;24.61;60.92;96396.16;5051927;28;20213;-27
2023/08/01 03:20:58;;;;;;;1.90;1.80;;;;;;;24.60;61.05;96394.47;5050970;28;20208;-27
2023/08/01 03:23:24;;;;;;;1.93;1.73;;;;;;;24.60;61.02;96391.91;5032037;28;20236;-27
2023/08/01 03:25:51;;;;;;;2.30;2.10;;;;;;;24.38;61.07;96360.22;5049067;28;20957;-27
2023/08/01 03:28:17;;;;;;;2.60;2.27;;;;;;;24.60;60.98;96397.88;5052837;28;20267;-27
2023/08/01 03:30:44;;;;;;;2.23;2.07;;;;;;;24.59;60.87;96408.16;5053674;28;20667;-27
2023/08/01 03:33:11;;;;;;;3.63;2.20;;;;;;;24.57;60.92;96410.72;5036999;28;20263;-27
2023/08/01 03:35:37;;;;;;;1.97;1.73;;;;;;;24.60;61.13;96415.03;5042537;28;20208;-27
2023/08/01 03:38:04;;;;;;;2.63;2.20;;;;;;;24.60;61.24;96418.44;5054064;28;21794;-27
2023/08/01 03:40:30;;;;;;;2.20;2.00;;;;;;;24.60;60.89;96418.44;5049677;28;20201;-27
2023/08/01 03:42:57;;;;;;;1.93;1.83;;;;;;;24.60;61.07;96421.00;5043855;28;20247;-34
2023/08/01 03:45:24;;;;;;;1.83;1.73;;;;;;;24.61;61.19;96417.59;5042187;28;20209;-27
2023/08/01 03:47:51;;;;;;;2.13;1.90;;;;;;;24.62;60.83;96410.72;5043201;28;20611;-28
2023/08/01 03:50:18;;;;;;;2.17;1.97;;;;;;;24.61;60.86;96403.88;5047517;28;20199;-30
2023/08/01 03:52:45;;;;;;;2.17;1.97;;;;;;;24.61;60.80;96398.75;5045372;28;20686;-27
2023/08/01 03:55:11;;;;;;;2.00;1.90;;;;;;;24.61;60.82;96403.88;5046501;28;20644;-28
2023/08/01 03:57:38;;;;;;;3.57;2.20;;;;;;;24.60;61.24;96399.59;5044354;28;20205;-34
2023/08/01 04:00:06;;;;;;;2.00;1.80;;;;;;;24.61;60.77;96398.75;5044279;28;20239;-27
2023/08/01 04:02:41;;;;;;;1.90;1.80;;;;;;;24.61;61.22;96385.91;5042679;28;20292;-32
2023/08/01 04:05:08;;;;;;;2.20;2.00;;;;;;;24.58;60.78;96381.63;5043066;28;20609;-30
2023/08/01 04:07:37;;;;;;;1.97;1.87;;;;;;;24.59;61.11;96370.47;5044037;28;20609;-31
2023/08/01 04:10:04;;;;;;;1.90;1.80;;;;;;;24.60;60.81;96354.19;5046692;28;20212;-28
2023/08/01 04:12:32;;;;;;;1.90;1.80;;;;;;;24.61;61.19;96353.38;5047945;28;20239;-27
2023/08/01 04:14:58;;;;;;;2.30;2.10;;;;;;;24.60;61.17;96354.19;5047208;28;20698;-27
2023/08/01 04:17:25;;;;;;;1.90;1.80;;;;;;;24.61;61.24;96357.63;5049184;28;20204;-27
2023/08/01 04:19:52;;;;;;;3.20;2.00;;;;;;;24.61;61.00;96358.50;5053836;28;20293;-27
2023/08/01 04:22:18;;;;;;;9.03;2.43;;;;;;;24.61;61.14;96361.06;5053806;28;20307;-27
2023/08/01 04:24:45;;;;;;;2.60;1.87;;;;;;;24.59;61.21;96352.50;5056511;28;20663;-27
2023/08/01 04:27:11;;;;;;;2.33;2.13;;;;;;;24.61;60.99;96348.22;5063028;28;20200;-27
2023/08/01 04:29:38;;;;;;;2.20;2.00;;;;;;;24.61;61.00;96353.38;5060569;28;20651;-28
2023/08/01 04:32:05;;;;;;;4.50;2.10;;;;;;;24.61;61.15;96347.38;5051486;28;20200;-27
2023/08/01 04:34:32;;;;;;;2.30;2.00;;;;;;;24.63;61.16;96337.94;5051798;28;20300;-27
2023/08/01 04:36:58;;;;;;;2.47;2.13;;;;;;;24.63;61.11;96330.25;5053841;28;20201;-27
2023/08/01 04:39:25;;;;;;;2.50;2.10;;;;;;;24.63;61.17;96335.38;5043203;28;20241;-28
2023/08/01 04:41:52;;;;;;;3.20;2.13;;;;;;;24.56;61.44;96319.09;5038692;28;20629;-28
2023/08/01 04:44:19;;;;;;;2.10;1.90;;;;;;;24.63;61.52;96319.97;5041294;28;20291;-27
2023/08/01 04:46:47;;;;;;;2.97;2.07;;;;;;;24.56;61.31;96302.84;5046830;28;20584;-28
2023/08/01 04:49:13;;;;;;;2.70;2.33;;;;;;;24.62;61.41;96307.97;5051076;28;20295;-27
2023/08/01 04:51:40;;;;;;;3.33;2.00;;;;;;;24.61;61.14;96316.53;5056834;28;20200;-27
2023/08/01 04:54:07;;;;;;;2.00;1.80;;;;;;;24.61;61.01;96308.81;5054876;28;20306;-30
2023/08/01 04:56:33;;;;;;;4.57;2.27;;;;;;;24.57;61.03;96299.44;5063718;28;20638;-27
2023/08/01 04:59:01;;;;;;;3.23;2.40;;;;;;;24.60;61.34;96305.41;5051634;28;20204;-27
2023/08/01 05:01:29;;;;;;;4.27;2.40;;;;;;;24.60;61.34;96310.53;5050563;28;20225;-27
2023/08/01 05:03:57;;;;;;;2.30;2.10;;;;;;;24.59;61.00;96305.41;5054122;28;20252;-27
2023/08/01 05:06:24;;;;;;;2.30;2.10;;;;;;;24.59;60.95;96307.97;5052592;28;20205;-27
2023/08/01 05:08:50;;;;;;;2.20;2.00;;;;;;;24.59;61.06;96308.81;5044218;28;20225;-27
2023/08/01 05:11:17;;;;;;;2.37;2.17;;;;;;;24.59;61.45;96298.56;5057254;28;20204;-27
2023/08/01 05:13:43;;;;;;;2.30;2.10;;;;;;;24.59;60.88;96295.13;5049071;28;20320;-27
2023/08/01 05:16:10;;;;;;;2.40;2.20;;;;;;;24.59;61.32;96301.13;5063634;28;20286;-27
2023/08/01 05:18:36;;;;;;;2.60;2.40;;;;;;;24.60;61.33;96299.44;5068531;28;20204;-27
2023/08/01 05:21:03;;;;;;;3.43;2.23;;;;;;;24.60;60.90;96297.69;5059803;28;20291;-27
2023/08/01 05:23:29;;;;;;;2.47;2.27;;;;;;;24.60;61.05;96307.97;5065751;28;20562;-27
2023/08/01 05:25:56;;;;;;;3.37;2.27;;;;;;;24.60;61.17;96305.41;5053122;28;20196;-27
2023/08/01 05:28:22;;;;;;;3.80;2.27;;;;;;;24.60;61.40;96304.56;5052881;28;20206;-27
2023/08/01 05:30:49;;;;;;;2.30;2.10;;;;;;;24.60;60.94;96310.53;5062907;28;20557;-27
2023/08/01 05:33:16;;;;;;;2.23;2.10;;;;;;;24.56;61.37;96318.25;5057417;28;20220;-27
2023/08/01 05:35:42;;;;;;;2.40;2.20;;;;;;;24.60;61.00;96317.41;5051979;28;20201;-27
2023/08/01 05:38:09;;;;;;;2.30;2.10;;;;;;;24.60;60.89;96305.41;5059201;28;20267;-27
2023/08/01 05:40:35;;;;;;;2.50;2.30;;;;;;;24.60;61.23;96307.13;5052129;28;20205;-27
2023/08/01 05:43:04;;;;;;;2.57;2.27;;;;;;;24.60;61.06;96302.81;5062798;28;20228;-27
2023/08/01 05:45:31;;;;;;;2.97;2.50;;;;;;;24.60;60.82;96309.69;5056761;28;20231;-28
2023/08/01 05:47:57;;;;;;;2.57;2.20;;;;;;;24.60;60.90;96299.44;5053585;28;20208;-27
2023/08/01 05:50:24;;;;;;;2.43;2.23;;;;;;;24.60;61.16;96300.25;5062960;28;20572;-27
2023/08/01 05:52:51;;;;;;;2.40;2.20;;;;;;;24.61;60.96;96285.72;5067017;28;20592;-27
2023/08/01 05:55:17;;;;;;;2.20;2.00;;;;;;;24.60;61.09;96278.88;5065183;28;20223;-27
2023/08/01 05:57:44;;;;;;;2.53;2.33;;;;;;;24.59;61.25;96247.19;5058201;28;20228;-27
2023/08/01 06:00:11;;;;;;;3.47;2.03;;;;;;;24.60;60.92;96240.34;5071209;28;20283;-28
2023/08/01 06:02:38;;;;;;;3.30;2.20;;;;;;;24.59;61.40;96229.19;5060342;28;20617;-27
2023/08/01 06:05:05;;;;;;;2.50;2.30;;;;;;;24.60;61.33;96236.03;5069072;28;20277;-27
2023/08/01 06:07:31;;;;;;;2.53;2.33;;;;;;;24.60;61.38;96225.75;5063724;28;20240;-27
2023/08/01 06:09:58;;;;;;;2.33;2.13;;;;;;;24.61;60.88;96230.06;5068422;28;20202;-27
2023/08/01 06:12:25;;;;;;;3.20;1.97;;;;;;;24.60;60.93;96225.75;5063005;28;20203;-27
2023/08/01 06:14:51;;;;;;;2.30;2.10;;;;;;;24.60;61.10;96223.19;5046984;28;20244;-27
2023/08/01 06:17:18;;;;;;;2.37;2.17;;;;;;;24.61;61.14;96218.91;5068944;28;20745;-27
2023/08/01 06:19:44;;;;;;;2.40;2.20;;;;;;;24.60;61.23;96230.91;5074065;28;20197;-27
2023/08/01 06:22:11;;;;;;;2.60;2.40;;;;;;;24.59;60.81;96224.06;5050748;28;20200;-27
2023/08/01 06:24:38;;;;;;;3.00;2.40;;;;;;;24.57;61.14;96219.81;5068154;28;20224;-27
2023/08/01 06:27:05;;;;;;;3.80;2.13;;;;;;;24.61;61.04;96234.34;5070429;28;20213;-27
2023/08/01 06:29:32;;;;;;;2.07;1.93;;;;;;;24.60;61.30;96242.91;5051400;28;20663;-27
2023/08/01 06:31:58;;;;;;;2.27;2.07;;;;;;;24.59;60.95;96242.03;5060717;28;20192;-27
2023/08/01 06:34:25;;;;;;;3.60;2.27;;;;;;;24.60;61.11;96242.91;5069118;28;20219;-27
2023/08/01 06:36:52;;;;;;;2.63;2.43;;;;;;;24.60;61.10;96235.19;5061465;28;20240;-27
2023/08/01 06:39:18;;;;;;;2.57;2.37;;;;;;;24.60;61.31;96235.19;5062180;28;20200;-27
2023/08/01 06:41:45;;;;;;;2.27;2.07;;;;;;;24.60;61.34;96240.34;5067225;28;20197;-27
2023/08/01 06:44:12;;;;;;;2.37;2.17;;;;;;;24.60;61.09;96241.16;5060730;28;20212;-27
2023/08/01 06:46:38;;;;;;;3.27;2.50;;;;;;;24.60;60.90;96248.03;5070808;28;20667;-27
2023/08/01 06:49:06;;;;;;;3.97;2.70;;;;;;;24.59;61.17;96239.47;5045515;28;20451;-27
2023/08/01 06:51:32;;;;;;;3.40;2.30;;;;;;;24.60;61.30;96246.31;5062496;28;20228;-27
2023/08/01 06:53:59;;;;;;;2.53;2.20;;;;;;;24.60;61.45;96233.47;5059536;28;20217;-27
2023/08/01 06:56:25;;;;;;;3.30;2.20;;;;;;;24.56;61.35;96231.78;5066413;28;20197;-27
2023/08/01 06:58:52;;;;;;;2.50;2.30;;;;;;;24.59;60.97;96229.19;5057890;28;20204;-27
2023/08/01 07:01:19;;;;;;;2.57;2.37;;;;;;;24.60;61.48;96230.06;5060531;28;20245;-27
2023/08/01 07:03:45;;;;;;;3.03;2.67;;;;;;;24.60;61.03;96238.59;5065968;28;20278;-27
2023/08/01 07:06:12;;;;;;;3.30;2.63;;;;;;;24.60;61.00;96230.06;5057280;28;20290;-27
2023/08/01 07:08:39;;;;;;;4.13;2.90;;;;;;;24.60;61.19;96238.59;5056160;28;20197;-27
2023/08/01 07:11:05;;;;;;;2.73;2.53;;;;;;;24.61;61.13;96235.19;5070177;28;20231;-27
2023/08/01 07:13:32;;;;;;;2.90;2.60;;;;;;;24.61;61.18;96229.19;5059511;28;20232;-27
2023/08/01 07:15:58;;;;;;;3.10;2.50;;;;;;;24.60;60.93;96223.19;5051779;28;20220;-32
2023/08/01 07:18:25;;;;;;;2.70;2.50;;;;;;;24.61;60.94;96239.47;5062374;28;20215;-27
2023/08/01 07:21:02;;;;;;;3.00;2.67;;;;;;;24.60;61.01;96241.16;5062885;28;20192;-27
2023/08/01 07:23:29;;;;;;;2.53;2.33;;;;;;;24.61;60.99;96244.59;5046867;28;20212;-27
2023/08/01 07:25:55;;;;;;;2.47;2.27;;;;;;;24.60;61.08;96241.16;5063269;28;20201;-28
2023/08/01 07:28:22;;;;;;;3.20;2.50;;;;;;;24.59;61.18;96239.47;5053904;28;20197;-28
2023/08/01 07:30:48;;;;;;;2.93;2.60;;;;;;;24.60;61.01;96225.75;5064729;28;20197;-27
2023/08/01 07:33:16;;;;;;;2.60;2.40;;;;;;;24.60;61.03;96230.91;5063916;28;20235;-27
2023/08/01 07:35:43;;;;;;;2.47;2.27;;;;;;;24.60;60.97;96230.91;5059289;28;20193;-27
2023/08/01 07:38:09;;;;;;;2.60;2.40;;;;;;;24.61;61.32;96231.75;5053851;28;20663;-27
2023/08/01 07:40:36;;;;;;;2.60;2.40;;;;;;;24.60;61.49;96222.34;5053738;28;20200;-27
2023/08/01 07:43:03;;;;;;;2.60;2.40;;;;;;;24.60;61.50;96228.31;5051745;28;20193;-32
2023/08/01 07:45:32;;;;;;;3.93;2.50;;;;;;;24.61;61.13;96226.63;5051079;28;20283;-27
2023/08/01 07:47:58;;;;;;;2.57;2.30;;;;;;;24.61;61.93;96218.91;5029137;28;20198;-27
2023/08/01 07:50:26;;;;;;;3.10;2.50;;;;;;;24.63;61.71;96222.34;5057194;28;20234;-27
2023/08/01 07:52:52;;;;;;;2.70;2.50;;;;;;;24.64;61.17;96229.19;5044199;28;20288;-27
2023/08/01 07:55:20;;;;;;;4.17;2.37;;;;;;;24.64;61.43;96240.31;5048808;28;20225;-31
2023/08/01 07:57:47;;;;;;;2.83;2.20;;;;;;;24.65;61.25;96243.75;5052827;28;20254;-27
2023/08/01 08:00:14;;;;;;;3.00;2.40;;;;;;;24.66;61.57;96254.03;5052663;28;20261;-27
2023/08/01 08:02:41;;;;;;;3.50;2.20;;;;;;;24.67;61.40;96270.31;5053064;28;20255;-27
2023/08/01 08:05:09;;;;;;;2.63;2.43;;;;;;;24.68;61.42;96269.44;5058022;28;20255;-28
2023/08/01 08:07:36;;;;;;;2.70;2.50;;;;;;;24.69;60.84;96272.00;5050659;28;20670;-27
2023/08/01 08:10:04;;;;;;;2.37;2.17;;;;;;;24.71;60.86;96282.28;5059169;28;20632;-32
2023/08/01 08:12:31;;;;;;;2.53;2.33;;;;;;;24.67;60.74;96284.03;5060916;28;20921;-27
2023/08/01 08:14:57;;;;;;;2.33;2.13;;;;;;;24.69;60.98;96286.59;5064101;28;20224;-27
2023/08/01 08:17:24;;;;;;;2.53;2.30;;;;;;;24.68;60.99;96285.72;5060070;28;20204;-27
2023/08/01 08:19:50;;;;;;;2.70;2.30;;;;;;;24.70;60.91;96286.59;5064140;28;20196;-33
2023/08/01 08:22:17;;;;;;;2.63;2.43;;;;;;;24.69;60.65;96282.28;5056374;28;20247;-27
2023/08/01 08:24:44;;;;;;;2.67;2.47;;;;;;;24.71;60.82;96295.13;5060116;28;20304;-27
2023/08/01 08:27:10;;;;;;;2.43;2.23;;;;;;;24.68;60.93;96292.56;5060052;28;20258;-27
2023/08/01 08:29:37;;;;;;;2.27;2.00;;;;;;;24.69;61.15;96284.84;5039298;28;20284;-27
2023/08/01 08:32:04;;;;;;;2.47;2.23;;;;;;;24.65;60.82;96282.28;5058669;28;20204;-27
2023/08/01 08:34:30;;;;;;;3.43;2.60;;;;;;;24.69;61.01;96295.13;5060234;28;20221;-27
2023/08/01 08:36:57;;;;;;;4.27;2.50;;;;;;;24.69;60.76;96287.41;5052400;28;20225;-27
2023/08/01 08:39:23;;;;;;;2.60;2.20;;;;;;;24.69;61.21;96282.28;5067289;28;20281;-27
2023/08/01 08:41:51;;;;;;;2.70;2.50;;;;;;;24.64;60.98;96271.16;5054070;28;20625;-32
2023/08/01 08:44:20;;;;;;;2.30;2.10;;;;;;;24.68;61.40;96274.59;5057180;28;20219;-27
2023/08/01 08:46:51;;;;;;;3.07;2.37;;;;;;;24.69;61.56;96274.56;5054866;28;20574;-27
2023/08/01 08:49:20;;;;;;;2.30;2.10;;;;;;;24.69;61.26;96277.16;5055847;28;20722;-27
2023/08/01 08:51:47;;;;;;;3.77;2.43;;;;;;;24.70;61.21;96278.00;5039770;28;20707;-27
2023/08/01 08:54:14;;;;;;;2.80;2.37;;;;;;;24.70;61.58;96281.44;5053196;28;20293;-27
2023/08/01 08:56:41;;;;;;;2.60;2.40;;;;;;;24.69;61.33;96277.16;5044640;28;20201;-27
2023/08/01 08:59:10;;;;;;;3.10;2.23;;;;;;;24.71;61.51;96283.16;5051797;28;20258;-27
2023/08/01 09:01:37;;;;;;;2.40;2.20;;;;;;;24.72;61.43;96282.28;5055707;28;20193;-27
2023/08/01 09:04:03;;;;;;;2.33;2.13;;;;;;;24.74;61.51;96288.28;5059940;28;20721;-27
2023/08/01 09:06:32;;;;;;;2.40;2.20;;;;;;;24.74;61.20;96295.97;5039562;28;20274;-28
2023/08/01 09:09:04;;;;;;;2.33;2.13;;;;;;;24.75;61.31;96302.81;5051967;28;20197;-27
2023/08/01 09:11:46;;;;;;;2.20;2.00;;;;;;;24.77;61.15;96316.53;5048747;28;20201;-27
2023/08/01 09:14:13;;;;;;;2.37;2.17;;;;;;;24.77;61.61;96333.66;5046456;28;20260;-27
2023/08/01 09:16:40;;;;;;;2.57;2.37;;;;;;;24.79;61.32;96339.66;5056328;28;20201;-27
2023/08/01 09:19:07;;;;;;;2.30;2.10;;;;;;;24.79;61.35;96319.97;5052808;28;20204;-27
2023/08/01 09:21:34;;;;;;;3.10;2.20;;;;;;;24.80;61.52;96313.09;5056673;28;20197;-27
2023/08/01 09:24:20;;;;;;;2.30;2.10;;;;;;;24.80;61.33;96305.38;5056718;28;20309;-27
2023/08/01 09:26:47;;;;;;;3.20;2.10;;;;;;;24.74;61.20;96303.69;5055819;28;20192;-27
2023/08/01 09:29:16;;;;;;;3.00;2.10;;;;;;;24.82;61.18;96319.09;5055980;28;20299;-27
2023/08/01 09:31:43;;;;;;;2.73;2.30;;;;;;;24.83;61.44;96325.94;5051342;28;20296;-31
2023/08/01 09:34:23;;;;;;;2.50;2.10;;;;;;;24.82;61.36;96319.97;5059235;28;20691;-27
2023/08/01 09:36:50;;;;;;;3.10;2.20;;;;;;;24.81;61.47;96318.22;5057338;28;20200;-27
2023/08/01 09:39:18;;;;;;;2.40;2.20;;;;;;;24.84;61.24;96336.19;5059578;28;20224;-27
2023/08/01 09:41:44;;;;;;;3.63;2.47;;;;;;;24.84;60.92;96330.22;5052455;28;20207;-27
2023/08/01 09:44:12;;;;;;;3.07;2.30;;;;;;;24.85;61.15;96326.78;5051039;28;20252;-27
2023/08/01 09:46:38;;;;;;;3.80;2.30;;;;;;;24.85;61.06;96321.66;5034351;28;20193;-28
2023/08/01 09:49:09;;;;;;;3.50;2.50;;;;;;;24.86;61.01;96311.38;5051359;28;20283;-27
2023/08/01 09:51:49;;;;;;;6.80;2.50;;;;;;;24.87;60.82;96307.09;5057215;28;20623;-27
2023/08/01 09:54:16;;;;;;;3.13;2.10;;;;;;;24.87;60.95;96304.53;5054015;28;20232;-27
2023/08/01 09:56:44;;;;;;;3.60;2.60;;;;;;;24.81;61.10;96300.22;5063359;28;20538;-27
2023/08/01 09:59:11;;;;;;;2.63;2.40;;;;;;;24.85;61.34;96301.09;5054239;28;20304;-28
2023/08/01 10:01:38;;;;;;;5.90;2.93;;;;;;;24.82;61.09;96298.53;5062117;28;20701;-27
2023/08/01 10:04:04;;;;;;;2.60;2.13;;;;;;;24.85;61.36;96312.25;5033193;28;20235;-27
2023/08/01 10:06:33;;;;;;;4.70;2.47;;;;;;;24.87;61.47;96312.22;5050983;28;20197;-27
2023/08/01 10:08:59;;;;;;;3.17;2.07;;;;;;;24.86;61.07;96307.94;5033482;28;20228;-27
2023/08/01 10:11:26;;;;;;;2.60;2.23;;;;;;;24.87;61.13;96291.66;5038094;28;20200;-32
2023/08/01 10:13:53;;;;;;;3.50;2.27;;;;;;;24.86;61.41;96288.25;5056768;28;20375;-27
2023/08/01 10:16:19;;;;;;;4.83;2.50;;;;;;;24.87;61.29;96278.81;5024473;28;20598;-27
2023/08/01 10:18:46;;;;;;;2.57;2.17;;;;;;;24.87;61.22;96269.38;5018241;28;20211;-27
2023/08/01 10:21:16;;;;;;;3.27;2.27;;;;;;;24.87;61.47;96271.94;5061368;28;20270;-27
2023/08/01 10:23:43;;;;;;;3.47;2.43;;;;;;;24.88;61.40;96270.25;5046637;28;20220;-27
2023/08/01 10:26:10;;;;;;;2.93;2.07;;;;;;;24.87;61.05;96271.94;5038008;28;20580;-27
2023/08/01 10:28:38;;;;;;;3.70;2.30;;;;;;;24.88;61.16;96289.09;5021374;28;20253;-27
2023/08/01 10:31:12;;;;;;;2.43;2.10;;;;;;;24.87;61.25;96282.22;5064992;28;20208;-27
2023/08/01 10:33:39;;;;;;;3.17;2.23;;;;;;;24.87;61.41;96278.81;5055235;28;20229;-27
2023/08/01 10:36:31;;;;;;;3.00;2.23;;;;;;;24.88;61.39;96278.81;5037362;28;20197;-27
2023/08/01 10:38:59;;;;;;;3.13;2.40;;;;;;;24.87;61.48;96259.09;5047079;28;20233;-27
2023/08/01 10:41:27;;;;;;;4.33;2.13;;;;;;;24.87;61.08;96265.97;5054167;28;20200;-27
2023/08/01 10:44:05;;;;;;;2.13;1.93;;;;;;;24.87;61.22;96271.94;5056279;28;20303;-27
2023/08/01 10:46:54;;;;;;;2.13;1.93;;;;;;;24.84;61.28;96271.13;5056757;28;20232;-27
2023/08/01 10:49:32;;;;;;;2.60;2.30;;;;;;;24.88;61.15;96265.97;5054179;28;20279;-27
2023/08/01 10:51:58;;;;;;;3.17;2.27;;;;;;;24.87;61.21;96271.13;5034234;28;20276;-27
2023/08/01 10:54:25;;;;;;;2.77;2.30;;;;;;;24.88;61.47;96270.25;5051148;28;20283;-27
2023/08/01 10:56:53;;;;;;;2.30;2.07;;;;;;;24.88;61.29;96273.69;5052586;28;20224;-27
2023/08/01 10:59:20;;;;;;;3.17;2.03;;;;;;;24.87;61.14;96279.66;5056793;28;20228;-27
2023/08/01 11:01:48;;;;;;;4.67;2.40;;;;;;;24.87;61.53;96277.09;5050130;28;20679;-28
2023/08/01 11:04:21;;;;;;;2.93;2.37;;;;;;;24.76;61.45;96266.00;5062202;28;20258;-27
2023/08/01 11:06:52;;;;;;;2.03;1.83;;;;;;;24.87;61.22;96284.78;5053728;28;20215;-27
2023/08/01 11:09:20;;;;;;;2.30;2.07;;;;;;;24.89;61.60;96282.22;5060683;28;20270;-27
2023/08/01 11:11:49;;;;;;;2.87;1.90;;;;;;;24.85;61.10;96283.97;5053609;28;20655;-27
2023/08/01 11:14:16;;;;;;;2.27;2.07;;;;;;;24.88;61.69;96291.66;5053812;28;20698;-27
2023/08/01 11:16:42;;;;;;;2.60;2.10;;;;;;;24.89;61.28;96295.94;5053489;28;20193;-27
2023/08/01 11:19:28;;;;;;;2.57;2.07;;;;;;;24.88;61.40;96301.09;5035811;28;20204;-27
2023/08/01 11:21:59;;;;;;;6.60;2.10;;;;;;;24.88;61.22;96307.09;5054032;28;20197;-27
2023/08/01 11:24:26;;;;;;;2.17;1.77;;;;;;;24.86;61.21;96301.09;5054321;28;20270;-27
2023/08/01 11:26:53;;;;;;;2.60;2.23;;;;;;;24.86;61.49;96293.38;5053765;28;20215;-27
2023/08/01 11:29:20;;;;;;;2.47;2.10;;;;;;;24.87;61.20;96295.06;5044316;28;20205;-27
2023/08/01 11:31:56;;;;;;;3.53;2.33;;;;;;;24.88;61.19;96294.25;5050304;28;20201;-27
2023/08/01 11:34:23;;;;;;;3.70;2.57;;;;;;;24.88;61.39;96301.94;5051645;28;20221;-27